Time;durP1;ratioP1;P1;durP2;ratioP2;P2;SDS_P1;SDS_P2;PMS_P1;PMS_P2;Temp;Humidity;BMP_temperature;BMP_pressure;BME280_temperature;BME280_humidity;BME280_pressure;Samples;Min_cycle;Max_cycle;Signal;HPM_P1;HPM_P2
2022/07/28 04:00:10;;;;;;;4.95;1.30;;;15.30;93.40;;;;;;6053340;23;20018;31
2022/07/28 04:02:35;;;;;;;2.58;1.17;;;15.30;93.50;;;;;;4932321;28;20506;-77
2022/07/28 04:05:01;;;;;;;4.00;1.10;;;15.30;93.70;;;;;;4936587;28;20044;-77
2022/07/28 04:07:27;;;;;;;3.03;1.38;;;15.30;93.40;;;;;;4937151;29;20490;-76
2022/07/28 04:09:52;;;;;;;4.05;1.35;;;15.30;93.60;;;;;;4935619;29;20536;-76
2022/07/28 04:12:18;;;;;;;2.92;1.23;;;15.30;93.30;;;;;;4936870;28;20119;-76
2022/07/28 04:14:43;;;;;;;2.45;1.45;;;15.40;93.30;;;;;;4982007;23;20047;-75
2022/07/28 04:17:09;;;;;;;2.15;1.20;;;15.40;93.20;;;;;;4975959;28;20400;-75
2022/07/28 04:19:34;;;;;;;4.93;1.42;;;15.40;93.00;;;;;;4978412;28;20459;-73
2022/07/28 04:22:00;;;;;;;3.92;1.40;;;15.50;93.20;;;;;;4976894;28;20119;-75
2022/07/28 04:24:26;;;;;;;2.83;1.55;;;15.50;93.20;;;;;;4975765;28;20100;-75
2022/07/28 04:26:51;;;;;;;2.65;1.27;;;15.50;93.00;;;;;;4977066;28;20035;-74
2022/07/28 04:29:17;;;;;;;5.55;1.48;;;15.50;93.60;;;;;;4976492;28;20050;-79
2022/07/28 04:31:42;;;;;;;3.63;1.30;;;15.60;92.80;;;;;;4976294;28;20374;-75
2022/07/28 04:34:08;;;;;;;3.35;1.20;;;15.70;93.20;;;;;;4975994;28;20039;-76
2022/07/28 04:36:40;;;;;;;2.20;1.20;;;15.80;93.10;;;;;;4975473;28;20119;-75
2022/07/28 04:39:06;;;;;;;3.58;1.50;;;15.90;92.60;;;;;;4976242;28;20836;-75
2022/07/28 04:41:32;;;;;;;2.67;1.13;;;16.00;92.60;;;;;;4976284;28;20086;-74
2022/07/28 04:43:58;;;;;;;2.88;1.40;;;16.00;92.50;;;;;;4977375;28;20093;-76
2022/07/28 04:46:23;;;;;;;3.45;1.40;;;16.10;92.80;;;;;;4978109;28;20174;-75
2022/07/28 04:48:49;;;;;;;2.38;1.42;;;16.20;92.80;;;;;;4977468;28;20497;-75
2022/07/28 04:51:14;;;;;;;6.68;1.48;;;16.20;92.50;;;;;;4978774;28;20504;-76
2022/07/28 04:53:40;;;;;;;3.58;1.30;;;16.20;92.20;;;;;;4978434;28;20043;-75
2022/07/28 04:56:05;;;;;;;4.43;1.60;;;16.20;92.30;;;;;;4979464;28;20114;-76
2022/07/28 04:58:31;;;;;;;5.47;2.38;;;16.20;92.10;;;;;;4980576;28;20035;-74
2022/07/28 05:00:56;;;;;;;5.05;1.42;;;16.20;92.70;;;;;;4978570;28;20027;-76
2022/07/28 05:03:22;;;;;;;2.92;1.40;;;16.20;92.40;;;;;;4980783;28;20076;-76
2022/07/28 05:05:48;;;;;;;2.65;1.50;;;16.30;92.60;;;;;;4980065;28;20489;-74
2022/07/28 05:08:13;;;;;;;2.92;1.40;;;16.20;92.40;;;;;;4981127;28;20111;-76
2022/07/28 05:10:39;;;;;;;4.72;1.50;;;16.20;92.60;;;;;;4982401;28;20042;-76
2022/07/28 05:13:06;;;;;;;6.40;1.30;;;16.20;92.80;;;;;;4979378;28;20036;-76
2022/07/28 05:15:32;;;;;;;3.03;1.42;;;16.20;93.10;;;;;;4977720;28;20045;-76
2022/07/28 05:17:58;;;;;;;5.72;1.58;;;16.20;93.30;;;;;;4978371;28;20126;-75
2022/07/28 05:20:23;;;;;;;2.45;1.40;;;16.20;93.20;;;;;;4975934;28;20451;-74
2022/07/28 05:22:56;;;;;;;2.47;1.45;;;16.30;93.00;;;;;;4977700;28;20075;-72
2022/07/28 05:25:23;;;;;;;4.93;1.50;;;16.20;92.80;;;;;;4977513;28;20106;-73
2022/07/28 05:27:50;;;;;;;4.13;1.58;;;16.30;92.70;;;;;;4978005;28;20565;-73
2022/07/28 05:30:16;;;;;;;4.22;1.60;;;16.30;92.80;;;;;;4976336;28;20078;-71
2022/07/28 05:32:44;;;;;;;3.97;1.70;;;16.30;92.80;;;;;;4977809;28;20027;-72
2022/07/28 05:35:10;;;;;;;2.40;1.52;;;16.30;92.80;;;;;;4975980;28;20043;-72
2022/07/28 05:37:36;;;;;;;4.75;1.77;;;16.30;92.90;;;;;;4977641;28;20027;-72
2022/07/28 05:40:03;;;;;;;3.63;1.60;;;16.40;92.90;;;;;;4977813;28;20090;-73
2022/07/28 05:42:34;;;;;;;3.28;1.60;;;16.50;92.80;;;;;;4977486;28;20122;-79
2022/07/28 05:45:01;;;;;;;3.50;1.70;;;16.60;92.50;;;;;;4978090;28;20587;-76
2022/07/28 05:47:27;;;;;;;2.55;1.50;;;16.70;93.00;;;;;;4977673;28;20465;-72
2022/07/28 05:49:52;;;;;;;3.92;1.60;;;16.80;92.70;;;;;;4978570;28;20087;-72
2022/07/28 05:52:18;;;;;;;4.88;1.60;;;17.00;92.60;;;;;;4977816;28;20035;-76
2022/07/28 05:54:43;;;;;;;3.28;1.73;;;17.20;91.80;;;;;;4975455;28;20035;-73
2022/07/28 05:57:10;;;;;;;6.55;1.80;;;17.40;92.00;;;;;;4977768;28;20049;-78
2022/07/28 05:59:36;;;;;;;3.17;1.80;;;17.50;91.70;;;;;;4976320;28;20488;-73
2022/07/28 06:02:03;;;;;;;5.07;1.70;;;17.50;91.10;;;;;;4977120;28;20027;-72
2022/07/28 06:04:28;;;;;;;4.10;1.58;;;17.70;90.90;;;;;;4976484;28;20051;-73
2022/07/28 06:06:54;;;;;;;6.93;2.10;;;17.70;90.80;;;;;;4977435;28;20058;-72
2022/07/28 06:09:19;;;;;;;5.05;1.88;;;17.70;91.20;;;;;;4978084;28;20039;-76
2022/07/28 06:11:45;;;;;;;4.38;1.95;;;17.70;91.20;;;;;;4978091;28;20031;-72
2022/07/28 06:14:10;;;;;;;5.00;1.60;;;17.60;92.00;;;;;;4975222;28;20940;-71
2022/07/28 06:16:36;;;;;;;6.90;1.70;;;17.50;91.70;;;;;;4977661;28;20039;-73
2022/07/28 06:19:01;;;;;;;5.55;1.80;;;17.40;91.50;;;;;;4977010;28;20035;-72
2022/07/28 06:21:27;;;;;;;4.95;1.70;;;17.40;92.00;;;;;;4977075;28;20054;-72
2022/07/28 06:23:52;;;;;;;3.03;1.63;;;17.40;91.90;;;;;;4975377;28;20095;-73
2022/07/28 06:26:20;;;;;;;3.40;1.70;;;17.50;91.90;;;;;;4976819;28;20062;-72
2022/07/28 06:28:45;;;;;;;4.03;1.77;;;17.60;91.80;;;;;;4976939;28;20032;-73
2022/07/28 06:31:11;;;;;;;5.13;1.80;;;17.80;91.80;;;;;;4977266;28;20042;-72
2022/07/28 06:33:36;;;;;;;7.13;2.05;;;17.90;91.50;;;;;;4975526;28;20047;-73
2022/07/28 06:36:02;;;;;;;8.00;2.40;;;17.90;91.90;;;;;;4975310;28;20098;-72
2022/07/28 06:38:28;;;;;;;5.85;2.20;;;18.10;91.20;;;;;;4976998;28;20488;-72
2022/07/28 06:40:53;;;;;;;3.50;2.05;;;18.20;91.40;;;;;;4977045;28;20043;-72
2022/07/28 06:43:19;;;;;;;3.88;2.10;;;18.40;91.60;;;;;;4976915;28;20404;-72
2022/07/28 06:45:44;;;;;;;4.97;2.60;;;18.50;91.10;;;;;;4974958;28;20039;-73
2022/07/28 06:48:12;;;;;;;6.15;2.15;;;18.60;90.90;;;;;;4975496;28;20031;-72
2022/07/28 06:50:38;;;;;;;3.72;2.10;;;18.80;90.90;;;;;;4977092;28;20058;-72
2022/07/28 06:53:03;;;;;;;5.43;2.13;;;18.90;91.10;;;;;;4970217;28;20401;-72
2022/07/28 06:55:29;;;;;;;2.85;1.98;;;18.90;90.70;;;;;;4975867;28;20098;-72
2022/07/28 06:57:57;;;;;;;6.28;2.10;;;19.00;90.70;;;;;;4976873;28;20040;-72
2022/07/28 07:00:22;;;;;;;8.45;2.25;;;19.20;90.50;;;;;;4976482;28;20797;-72
2022/07/28 07:02:48;;;;;;;7.55;2.40;;;19.30;90.50;;;;;;4976376;28;20089;-73
2022/07/28 07:05:14;;;;;;;6.43;2.50;;;19.30;90.90;;;;;;4976431;28;20102;-77
2022/07/28 07:07:40;;;;;;;10.40;2.47;;;19.40;90.70;;;;;;4976728;28;20449;-75
2022/07/28 07:10:06;;;;;;;4.65;3.00;;;19.40;90.90;;;;;;4976554;28;20035;-73
2022/07/28 07:12:33;;;;;;;4.88;2.75;;;19.50;91.80;;;;;;4974944;28;20032;-73
2022/07/28 07:14:58;;;;;;;6.25;2.60;;;19.50;90.70;;;;;;4975755;28;20047;-74
2022/07/28 07:17:24;;;;;;;4.57;2.67;;;19.80;90.90;;;;;;4975445;28;20830;-72
2022/07/28 07:19:50;;;;;;;6.75;2.88;;;20.10;90.50;;;;;;4976840;28;20039;-73
2022/07/28 07:22:15;;;;;;;8.48;3.58;;;20.40;90.10;;;;;;4976439;28;20043;-77
2022/07/28 07:24:41;;;;;;;7.32;3.05;;;20.50;89.80;;;;;;4975840;28;20564;-74
2022/07/28 07:27:07;;;;;;;5.55;3.10;;;20.60;89.10;;;;;;4976360;28;20035;-74
2022/07/28 07:29:32;;;;;;;5.18;3.33;;;20.80;88.80;;;;;;4976136;28;20035;-75
2022/07/28 07:31:58;;;;;;;6.20;3.28;;;21.10;88.50;;;;;;4976491;28;20497;-78
2022/07/28 07:34:23;;;;;;;5.35;3.50;;;21.30;87.40;;;;;;4974161;28;20054;-74
2022/07/28 07:36:49;;;;;;;7.40;3.35;;;21.40;87.50;;;;;;4976011;28;20039;-74
2022/07/28 07:39:14;;;;;;;7.45;3.20;;;21.60;86.90;;;;;;4974664;28;20043;-74
2022/07/28 07:41:41;;;;;;;6.47;3.30;;;21.80;86.10;;;;;;4974510;28;20383;-74
2022/07/28 07:44:08;;;;;;;5.45;3.42;;;22.00;85.70;;;;;;4975277;28;20045;-74
2022/07/28 07:46:35;;;;;;;9.35;3.55;;;22.40;86.70;;;;;;4974533;28;20489;-74
2022/07/28 07:49:00;;;;;;;4.43;3.58;;;22.70;85.40;;;;;;4975897;28;20127;-74
2022/07/28 07:51:26;;;;;;;6.30;3.60;;;22.90;84.00;;;;;;4974375;28;20130;-74
2022/07/28 07:53:51;;;;;;;7.53;3.67;;;23.00;83.20;;;;;;4975750;28;20042;-75
2022/07/28 07:56:17;;;;;;;6.65;3.90;;;23.20;82.70;;;;;;4975349;28;20035;-74
2022/07/28 07:58:43;;;;;;;6.28;4.03;;;23.40;83.40;;;;;;4975647;28;20095;-74
2022/07/28 08:01:11;;;;;;;6.60;4.30;;;23.50;82.30;;;;;;4976004;28;20062;-74
2022/07/28 08:03:37;;;;;;;5.70;3.85;;;23.60;80.80;;;;;;4975772;28;20073;-75
2022/07/28 08:06:02;;;;;;;6.32;4.10;;;23.60;81.20;;;;;;4975606;28;20062;-73
2022/07/28 08:08:28;;;;;;;9.60;4.20;;;23.70;81.40;;;;;;4975704;28;20459;-73
2022/07/28 08:10:53;;;;;;;4.70;3.72;;;23.80;80.30;;;;;;4976028;28;20035;-73
2022/07/28 08:13:19;;;;;;;7.18;4.00;;;23.90;80.40;;;;;;4975455;28;20087;-74
2022/07/28 08:15:45;;;;;;;7.88;4.20;;;24.40;80.50;;;;;;4974713;28;20061;-74
2022/07/28 08:18:11;;;;;;;5.63;3.72;;;24.40;78.80;;;;;;4975240;28;20512;-73
2022/07/28 08:20:37;;;;;;;7.72;4.13;;;24.40;79.50;;;;;;4975477;28;20053;-73
2022/07/28 08:23:02;;;;;;;4.82;3.72;;;24.60;77.90;;;;;;4975986;28;20031;-73
2022/07/28 08:25:28;;;;;;;6.40;3.53;;;24.50;77.80;;;;;;4974896;28;20043;-73
2022/07/28 08:27:53;;;;;;;7.30;4.22;;;24.70;77.80;;;;;;4973895;28;20093;-73
2022/07/28 08:30:19;;;;;;;6.20;4.07;;;25.10;78.70;;;;;;4975309;28;20040;-73
2022/07/28 08:32:45;;;;;;;6.63;4.00;;;25.10;77.30;;;;;;4975410;28;20035;-73
2022/07/28 08:35:10;;;;;;;7.78;4.05;;;25.40;77.00;;;;;;4973479;28;20035;-74
2022/07/28 08:37:38;;;;;;;8.65;5.03;;;25.40;75.70;;;;;;4975386;28;20122;-74
2022/07/28 08:40:07;;;;;;;6.68;4.28;;;25.30;76.00;;;;;;4974727;28;20035;-73
2022/07/28 08:42:54;;;;;;;7.65;4.05;;;25.50;75.80;;;;;;4975029;28;20146;-73
2022/07/28 08:45:20;;;;;;;5.28;4.00;;;25.50;75.90;;;;;;4973022;28;20508;-73
2022/07/28 08:47:48;;;;;;;6.72;4.15;;;25.60;76.10;;;;;;4973544;28;20039;-74
2022/07/28 08:50:14;;;;;;;7.28;3.92;;;25.80;74.70;;;;;;4973801;28;20040;-74
2022/07/28 08:52:42;;;;;;;5.25;3.88;;;25.90;75.30;;;;;;4975046;28;20453;-74
2022/07/28 08:55:08;;;;;;;6.57;4.25;;;26.10;74.70;;;;;;4973128;28;20087;-74
2022/07/28 08:57:39;;;;;;;9.75;4.00;;;26.10;73.90;;;;;;4973539;28;20618;-74
2022/07/28 09:00:05;;;;;;;4.57;4.10;;;26.10;74.00;;;;;;4975109;28;20047;-74
2022/07/28 09:02:36;;;;;;;6.72;4.10;;;26.50;73.00;;;;;;4974995;28;20106;-74
2022/07/28 09:05:03;;;;;;;6.25;4.35;;;26.50;73.20;;;;;;4974264;28;20039;-74
2022/07/28 09:07:30;;;;;;;8.88;4.85;;;26.90;72.30;;;;;;4975028;28;20032;-74
2022/07/28 09:10:01;;;;;;;8.02;3.95;;;26.90;72.20;;;;;;4974736;28;20051;-74
2022/07/28 09:12:27;;;;;;;5.88;4.07;;;27.10;71.70;;;;;;4974904;28;20086;-74
2022/07/28 09:14:52;;;;;;;5.75;4.20;;;27.20;72.00;;;;;;4973564;28;20547;-74
2022/07/28 09:17:18;;;;;;;8.90;4.57;;;27.30;71.10;;;;;;4974856;28;20031;-74
2022/07/28 09:19:44;;;;;;;4.68;3.75;;;27.60;69.60;;;;;;4975714;28;20039;-75
2022/07/28 09:22:09;;;;;;;5.88;4.03;;;27.70;69.70;;;;;;4974834;28;20035;-73
2022/07/28 09:24:36;;;;;;;7.18;3.75;;;27.80;68.20;;;;;;4973946;28;20097;-74
2022/07/28 09:27:07;;;;;;;7.28;4.00;;;27.90;68.90;;;;;;4974607;28;20042;-73
2022/07/28 09:29:35;;;;;;;6.57;3.72;;;27.80;69.00;;;;;;4975500;28;20031;-74
2022/07/28 09:32:01;;;;;;;8.82;3.97;;;27.50;68.80;;;;;;4976247;28;20511;-74
2022/07/28 09:34:27;;;;;;;8.23;4.13;;;27.70;69.10;;;;;;4975894;28;20592;-74
2022/07/28 09:36:52;;;;;;;7.32;3.90;;;27.70;68.90;;;;;;4977740;28;20058;-74
2022/07/28 09:39:35;;;;;;;5.78;4.05;;;28.10;68.50;;;;;;4976057;28;20166;-74
2022/07/28 09:42:01;;;;;;;9.35;4.13;;;28.50;68.20;;;;;;4977763;28;20058;-74
2022/07/28 09:44:27;;;;;;;7.78;3.70;;;28.50;66.80;;;;;;4977165;28;20144;-73
2022/07/28 09:46:56;;;;;;;5.90;3.65;;;28.60;66.80;;;;;;4976104;28;20114;-74
2022/07/28 09:49:40;;;;;;;7.60;4.15;;;28.80;65.00;;;;;;4977604;28;20039;-74
2022/07/28 09:52:06;;;;;;;4.13;3.50;;;28.90;65.30;;;;;;4977698;28;20028;-74
2022/07/28 09:54:32;;;;;;;7.03;3.80;;;29.20;65.40;;;;;;4975498;28;20417;-74
2022/07/28 09:56:57;;;;;;;6.75;3.58;;;29.20;63.30;;;;;;4977589;28;20381;-72
2022/07/28 09:59:23;;;;;;;9.50;3.35;;;28.90;64.60;;;;;;4977330;28;20159;-72
2022/07/28 10:02:01;;;;;;;6.75;3.65;;;28.30;65.30;;;;;;4977778;28;20126;-73
2022/07/28 10:04:36;;;;;;;7.07;3.50;;;28.10;66.10;;;;;;4977148;28;20042;-73
2022/07/28 10:07:13;;;;;;;4.20;3.78;;;28.30;66.40;;;;;;4975787;28;20035;-73
2022/07/28 10:09:39;;;;;;;7.15;3.80;;;28.30;66.10;;;;;;4975834;28;20039;-72
2022/07/28 10:12:16;;;;;;;4.97;3.60;;;28.50;65.70;;;;;;4977418;28;20035;-72
2022/07/28 10:14:45;;;;;;;4.30;3.10;;;28.70;63.90;;;;;;4998098;23;20055;-73
2022/07/28 10:17:20;;;;;;;6.90;3.40;;;29.20;64.90;;;;;;4975944;28;20098;-73
2022/07/28 10:19:46;;;;;;;6.45;3.35;;;29.40;63.40;;;;;;4977374;28;20047;-73
2022/07/28 10:22:13;;;;;;;4.65;3.30;;;29.70;62.80;;;;;;4977055;28;20038;-73
2022/07/28 10:24:39;;;;;;;3.58;3.10;;;29.90;62.30;;;;;;4976711;28;20046;-73
2022/07/28 10:27:05;;;;;;;7.55;3.45;;;30.20;60.70;;;;;;4976803;28;20512;-73
2022/07/28 10:29:31;;;;;;;4.90;3.25;;;30.50;60.70;;;;;;4976999;28;20044;-74
2022/07/28 10:32:04;;;;;;;5.95;3.63;;;30.70;59.90;;;;;;4977063;28;20027;-73
2022/07/28 10:34:36;;;;;;;4.68;3.38;;;30.90;59.30;;;;;;4976649;28;20500;-73
2022/07/28 10:37:03;;;;;;;5.55;3.30;;;30.80;59.50;;;;;;4975578;28;20031;-74
2022/07/28 10:39:38;;;;;;;4.15;3.13;;;31.00;60.00;;;;;;4975734;28;20203;-73
2022/07/28 10:42:09;;;;;;;6.35;3.28;;;31.20;58.50;;;;;;4976680;28;20449;-73
2022/07/28 10:44:36;;;;;;;3.72;3.30;;;31.40;59.00;;;;;;4974901;28;20110;-73
2022/07/28 10:47:07;;;;;;;4.05;3.40;;;31.40;57.70;;;;;;4976887;28;20039;-73
2022/07/28 10:49:34;;;;;;;6.15;3.20;;;30.70;58.40;;;;;;4976915;28;20086;-73
2022/07/28 10:52:00;;;;;;;4.68;3.00;;;30.70;59.00;;;;;;4976915;28;20107;-73
2022/07/28 10:54:28;;;;;;;4.72;3.33;;;31.00;58.60;;;;;;4977066;28;20532;-73
2022/07/28 10:56:56;;;;;;;6.30;3.22;;;30.90;59.20;;;;;;4976774;28;20543;-73
2022/07/28 11:00:04;;;;;;;4.45;3.10;;;30.60;59.00;;;;;;4976810;28;20042;-73
2022/07/28 11:02:46;;;;;;;4.35;3.10;;;30.80;59.10;;;;;;4975307;28;20031;-73
2022/07/28 11:05:39;;;;;;;4.25;3.20;;;30.70;59.00;;;;;;4976155;28;20043;-73
2022/07/28 11:08:07;;;;;;;5.43;3.30;;;30.30;59.10;;;;;;4976817;28;20043;-73
2022/07/28 11:11:01;;;;;;;8.18;3.28;;;30.50;59.50;;;;;;4976651;28;20118;-73
2022/07/28 11:13:36;;;;;;;6.03;3.38;;;30.30;58.80;;;;;;4978949;28;20050;-73
2022/07/28 11:16:20;;;;;;;3.95;3.28;;;30.10;58.90;;;;;;4975877;28;20043;-73
2022/07/28 11:19:02;;;;;;;6.97;3.30;;;30.00;58.80;;;;;;4975345;28;20118;-73
2022/07/28 11:21:27;;;;;;;6.25;3.20;;;30.30;59.10;;;;;;4976436;28;20042;-74
2022/07/28 11:23:55;;;;;;;7.57;3.25;;;30.20;59.10;;;;;;4975794;28;20045;-73
2022/07/28 11:26:23;;;;;;;6.00;3.35;;;30.30;58.60;;;;;;4974691;28;20038;-73
2022/07/28 11:28:58;;;;;;;3.95;3.00;;;30.10;58.50;;;;;;4970065;28;20039;-73
2022/07/28 11:31:43;;;;;;;5.43;3.08;;;29.90;59.20;;;;;;4956743;28;20034;-73
2022/07/28 11:34:19;;;;;;;6.45;3.20;;;30.10;59.20;;;;;;4956221;28;20032;-73
2022/07/28 11:36:57;;;;;;;4.18;3.20;;;30.30;59.60;;;;;;4963986;28;20027;-74
2022/07/28 11:39:24;;;;;;;6.15;3.05;;;30.50;58.10;;;;;;4972196;28;20472;-73
2022/07/28 11:41:50;;;;;;;7.50;3.53;;;31.30;58.50;;;;;;4973876;28;20082;-73
2022/07/28 11:44:29;;;;;;;5.80;3.75;;;31.90;56.70;;;;;;4975560;28;20039;-73
2022/07/28 11:47:27;;;;;;;3.75;3.13;;;32.70;55.80;;;;;;4976015;28;20070;-74
2022/07/28 11:50:13;;;;;;;4.70;2.90;;;33.00;55.10;;;;;;4977887;28;20043;-74
2022/07/28 11:52:52;;;;;;;8.50;3.08;;;33.40;54.40;;;;;;4962721;28;20062;-73
2022/07/28 11:55:18;;;;;;;4.10;3.28;;;33.60;52.90;;;;;;4975589;28;20031;-73
2022/07/28 11:57:45;;;;;;;4.72;2.97;;;33.90;52.40;;;;;;4958320;28;20047;-77
2022/07/28 12:00:10;;;;;;;4.35;3.00;;;34.10;51.50;;;;;;4967159;28;20039;-81
2022/07/28 12:02:39;;;;;;;4.40;3.22;;;33.90;52.20;;;;;;4964306;28;20035;-79
2022/07/28 12:05:10;;;;;;;7.40;3.03;;;33.90;51.50;;;;;;4975611;28;20571;-75
2022/07/28 12:07:49;;;;;;;3.38;2.95;;;33.80;52.40;;;;;;4972472;28;20041;-74
2022/07/28 12:10:34;;;;;;;3.25;2.92;;;33.60;52.40;;;;;;4969084;28;20039;-75
2022/07/28 12:13:09;;;;;;;5.25;3.28;;;32.90;53.00;;;;;;4975696;28;20083;-74
2022/07/28 12:15:34;;;;;;;4.70;3.00;;;32.30;54.60;;;;;;4972994;28;20039;-73
2022/07/28 12:18:00;;;;;;;3.47;2.72;;;32.00;54.50;;;;;;4968158;28;20494;-75
2022/07/28 12:20:33;;;;;;;7.25;3.53;;;31.30;55.30;;;;;;4958850;28;20082;-75
2022/07/28 12:23:06;;;;;;;4.35;3.10;;;31.20;55.60;;;;;;4975673;28;20035;-75
2022/07/28 12:25:42;;;;;;;5.70;3.25;;;31.90;55.40;;;;;;4975353;28;20035;-76
2022/07/28 12:28:21;;;;;;;3.83;3.05;;;32.50;54.20;;;;;;4961789;28;20121;-75
2022/07/28 12:30:48;;;;;;;8.43;3.40;;;32.60;53.50;;;;;;4962485;28;20063;-75
2022/07/28 12:33:23;;;;;;;5.40;3.08;;;32.60;52.80;;;;;;4973803;28;20472;-75
2022/07/28 12:35:51;;;;;;;5.05;3.00;;;32.40;54.00;;;;;;4974945;28;20041;-75
2022/07/28 12:38:20;;;;;;;3.17;2.70;;;32.40;52.50;;;;;;4968834;28;20043;-79
2022/07/28 12:40:46;;;;;;;3.75;3.05;;;32.60;53.50;;;;;;4968857;28;20046;-79
2022/07/28 12:43:18;;;;;;;7.35;3.13;;;33.10;52.50;;;;;;4975679;28;20123;-73
2022/07/28 12:45:46;;;;;;;7.25;3.47;;;33.30;52.00;;;;;;4973643;28;20043;-73
2022/07/28 12:48:17;;;;;;;4.80;2.72;;;33.60;53.30;;;;;;4974917;28;20417;-73
2022/07/28 12:50:43;;;;;;;3.97;2.63;;;34.80;51.20;;;;;;4973787;28;20043;-73
2022/07/28 12:53:10;;;;;;;5.30;3.05;;;35.10;49.00;;;;;;4974384;28;20430;-73
2022/07/28 12:55:38;;;;;;;6.82;3.00;;;35.40;51.20;;;;;;4972966;28;20044;-73
2022/07/28 12:58:05;;;;;;;4.85;3.00;;;35.50;48.20;;;;;;4975120;28;20564;-73
2022/07/28 13:00:33;;;;;;;10.20;3.15;;;35.30;48.50;;;;;;4974692;28;20512;-73
2022/07/28 13:03:18;;;;;;;6.30;3.38;;;34.80;48.90;;;;;;4973776;28;20042;-73
2022/07/28 13:06:02;;;;;;;5.00;2.92;;;34.90;49.50;;;;;;4978014;28;20074;-73
2022/07/28 13:08:37;;;;;;;4.65;3.08;;;34.90;49.20;;;;;;4978572;28;20035;-73
2022/07/28 13:11:03;;;;;;;3.38;3.08;;;34.80;48.10;;;;;;4978462;28;20549;-73
2022/07/28 13:13:28;;;;;;;7.85;3.10;;;35.20;48.30;;;;;;4978292;28;20118;-73
2022/07/28 13:16:15;;;;;;;5.72;3.10;;;35.30;47.70;;;;;;4977557;28;20505;-73
2022/07/28 13:18:46;;;;;;;3.95;2.80;;;35.10;48.80;;;;;;4978055;28;20027;-73
2022/07/28 13:21:12;;;;;;;4.50;3.20;;;34.50;48.40;;;;;;4978257;28;20039;-73
2022/07/28 13:23:37;;;;;;;5.28;3.05;;;34.10;48.80;;;;;;4977881;28;20083;-74
2022/07/28 13:26:04;;;;;;;4.18;2.95;;;33.80;49.70;;;;;;4977817;28;20035;-74
2022/07/28 13:28:30;;;;;;;4.35;3.15;;;34.50;49.90;;;;;;4978382;28;20130;-74
2022/07/28 13:30:56;;;;;;;3.85;2.90;;;34.50;49.00;;;;;;4978260;28;20122;-74
2022/07/28 13:33:21;;;;;;;6.50;3.35;;;34.30;48.50;;;;;;4977926;28;20039;-75
2022/07/28 13:35:49;;;;;;;4.07;2.83;;;34.70;48.60;;;;;;4979052;28;20087;-74
2022/07/28 13:38:15;;;;;;;4.78;3.00;;;34.90;49.20;;;;;;4977450;28;20126;-75
2022/07/28 13:40:41;;;;;;;6.65;3.20;;;35.30;48.70;;;;;;4976576;28;20063;-74
2022/07/28 13:43:06;;;;;;;4.38;3.05;;;36.50;47.10;;;;;;4977976;28;20081;-74
2022/07/28 13:45:35;;;;;;;5.07;2.80;;;37.90;44.80;;;;;;4975990;28;20485;-75
2022/07/28 13:48:03;;;;;;;5.43;3.40;;;38.30;43.20;;;;;;4978405;28;20087;-74
2022/07/28 13:50:28;;;;;;;3.88;2.67;;;37.60;45.00;;;;;;4976481;28;20412;-74
2022/07/28 13:52:54;;;;;;;3.85;2.92;;;37.60;43.50;;;;;;4977841;28;20039;-74
2022/07/28 13:55:20;;;;;;;6.25;3.05;;;38.00;44.20;;;;;;4978126;28;20035;-74
2022/07/28 13:57:46;;;;;;;5.20;3.10;;;38.40;43.30;;;;;;4978281;28;20031;-74
2022/07/28 14:00:12;;;;;;;5.88;2.88;;;39.10;41.40;;;;;;4977963;28;20027;-74
2022/07/28 14:02:38;;;;;;;4.80;3.13;;;39.30;43.00;;;;;;4976515;28;20090;-74
2022/07/28 14:05:04;;;;;;;4.43;3.10;;;39.80;40.50;;;;;;4977392;28;20457;-74
2022/07/28 14:07:30;;;;;;;4.75;3.13;;;39.80;40.30;;;;;;4977501;28;20031;-74
2022/07/28 14:09:55;;;;;;;4.20;3.00;;;38.70;40.90;;;;;;4977596;28;20050;-73
2022/07/28 14:12:21;;;;;;;5.15;3.15;;;38.30;42.30;;;;;;4977306;28;20079;-75
2022/07/28 14:14:49;;;;;;;5.38;3.03;;;37.20;42.60;;;;;;4976328;28;20047;-74
2022/07/28 14:17:21;;;;;;;7.35;3.25;;;36.20;44.40;;;;;;4976050;28;20118;-75
2022/07/28 14:19:47;;;;;;;3.97;3.33;;;35.30;45.00;;;;;;4977599;28;20027;-75
2022/07/28 14:22:12;;;;;;;5.53;3.15;;;35.10;47.20;;;;;;4977281;28;20039;-75
2022/07/28 14:24:38;;;;;;;4.38;3.17;;;35.10;46.80;;;;;;4976864;28;20551;-75
2022/07/28 14:27:04;;;;;;;4.68;3.00;;;35.00;47.00;;;;;;4978196;28;20489;-75
2022/07/28 14:29:29;;;;;;;4.55;3.00;;;34.60;46.60;;;;;;4976054;28;20497;-75
2022/07/28 14:31:57;;;;;;;5.30;3.08;;;33.80;48.60;;;;;;4977464;28;20095;-75
2022/07/28 14:34:23;;;;;;;4.90;3.25;;;33.30;49.00;;;;;;4976976;28;20058;-74
2022/07/28 14:36:51;;;;;;;4.53;3.28;;;33.40;49.30;;;;;;4977139;28;20038;-74
2022/07/28 14:39:17;;;;;;;4.05;3.30;;;33.40;48.80;;;;;;4975641;28;20493;-75
2022/07/28 14:41:43;;;;;;;4.90;3.00;;;33.20;48.50;;;;;;4977265;28;20099;-75
2022/07/28 14:44:09;;;;;;;4.68;3.15;;;32.70;50.80;;;;;;4975309;28;20087;-74
2022/07/28 14:46:34;;;;;;;5.80;3.08;;;32.30;51.10;;;;;;4975407;28;20027;-75
2022/07/28 14:49:00;;;;;;;6.85;3.25;;;31.90;51.90;;;;;;4976939;28;20038;-75
2022/07/28 14:51:25;;;;;;;6.28;3.30;;;31.90;52.30;;;;;;4971319;28;20114;-76
2022/07/28 14:53:51;;;;;;;5.65;3.47;;;31.70;51.90;;;;;;4956833;28;20047;-74
2022/07/28 14:56:16;;;;;;;6.20;3.40;;;31.60;52.00;;;;;;4958853;28;20498;-76
2022/07/28 14:58:42;;;;;;;5.88;3.22;;;31.60;51.90;;;;;;4957540;28;20040;-74
2022/07/28 15:01:07;;;;;;;5.68;3.10;;;31.80;52.20;;;;;;4968972;28;20043;-74
2022/07/28 15:03:33;;;;;;;5.18;3.45;;;31.80;51.20;;;;;;4974355;28;20564;-75
2022/07/28 15:06:00;;;;;;;6.38;3.00;;;32.20;51.30;;;;;;4960625;28;20102;-74
2022/07/28 15:08:26;;;;;;;4.57;3.20;;;31.90;51.90;;;;;;4958448;28;20030;-76
2022/07/28 15:10:52;;;;;;;6.15;3.20;;;32.30;52.30;;;;;;4959646;28;20031;-73
2022/07/28 15:13:18;;;;;;;4.90;3.17;;;34.10;49.90;;;;;;4957853;28;20036;-75
2022/07/28 15:15:43;;;;;;;5.20;3.40;;;34.90;47.60;;;;;;4956883;28;20043;-75
2022/07/28 15:18:09;;;;;;;3.83;3.13;;;34.80;48.00;;;;;;4968062;28;20082;-76
2022/07/28 15:20:38;;;;;;;4.80;3.08;;;34.70;47.60;;;;;;4977030;28;20067;-77
2022/07/28 15:23:09;;;;;;;5.22;3.53;;;34.40;47.50;;;;;;4974902;28;20066;-76
2022/07/28 15:25:34;;;;;;;6.15;3.15;;;35.40;47.80;;;;;;4974617;28;20054;-75
2022/07/28 15:28:00;;;;;;;5.05;3.05;;;37.70;44.60;;;;;;4976064;28;20039;-76
2022/07/28 15:30:26;;;;;;;5.40;3.47;;;38.80;41.70;;;;;;4960960;28;20039;-76
2022/07/28 15:32:54;;;;;;;3.30;3.00;;;39.40;41.70;;;;;;4956862;28;20175;-77
2022/07/28 15:35:19;;;;;;;5.03;3.25;;;40.90;40.50;;;;;;4957239;28;20094;-77
2022/07/28 15:37:45;;;;;;;3.45;3.15;;;41.70;38.30;;;;;;4983223;28;20196;-74
2022/07/28 15:40:11;;;;;;;3.88;3.47;;;42.20;37.70;;;;;;4996102;28;20623;-74
2022/07/28 15:42:36;;;;;;;4.30;3.17;;;42.50;37.60;;;;;;4995519;28;20091;-75
2022/07/28 15:45:02;;;;;;;3.97;3.00;;;42.50;36.40;;;;;;4995057;28;20039;-73
2022/07/28 15:47:28;;;;;;;3.63;3.33;;;42.50;36.30;;;;;;4995650;28;20034;-74
2022/07/28 15:49:53;;;;;;;5.70;3.15;;;43.00;36.00;;;;;;4995740;28;20039;-76
2022/07/28 15:52:22;;;;;;;3.72;3.42;;;43.00;35.90;;;;;;4995784;28;20033;-74
2022/07/28 15:54:48;;;;;;;4.53;3.10;;;43.00;35.90;;;;;;4990332;28;20054;-73
2022/07/28 15:57:13;;;;;;;4.45;3.15;;;42.10;35.60;;;;;;4974468;28;20038;-74
2022/07/28 15:59:39;;;;;;;4.90;3.40;;;42.10;36.00;;;;;;4976466;28;20046;-83
2022/07/28 16:02:05;;;;;;;5.70;3.28;;;42.00;36.60;;;;;;4979398;28;20433;-75
2022/07/28 16:04:31;;;;;;;4.80;3.15;;;42.40;36.50;;;;;;4975565;28;20046;-76
2022/07/28 16:07:21;;;;;;;5.95;3.30;;;42.10;36.20;;;;;;4975049;28;20063;-75
2022/07/28 16:09:47;;;;;;;5.00;3.20;;;43.00;35.80;;;;;;4984087;28;20076;-76
2022/07/28 16:12:13;;;;;;;4.10;3.05;;;42.90;35.40;;;;;;4980462;28;20514;-75
2022/07/28 16:14:39;;;;;;;4.63;2.85;;;42.00;36.30;;;;;;4992606;23;20048;-81
2022/07/28 16:17:05;;;;;;;8.98;6.32;;;41.90;36.10;;;;;;4956802;28;20035;-76
2022/07/28 16:19:31;;;;;;;3.50;3.20;;;41.40;36.50;;;;;;4957226;28;20044;-78
2022/07/28 16:21:59;;;;;;;4.97;3.97;;;40.90;36.60;;;;;;4958423;28;20043;-80
2022/07/28 16:24:25;;;;;;;7.85;4.93;;;39.50;37.90;;;;;;4957496;28;20572;-79
2022/07/28 16:26:50;;;;;;;5.22;3.75;;;39.50;38.90;;;;;;4957963;28;20046;-80
2022/07/28 16:29:17;;;;;;;8.68;4.03;;;38.10;39.80;;;;;;4960451;28;20040;-77
2022/07/28 16:31:43;;;;;;;3.55;3.13;;;37.10;41.30;;;;;;4957304;28;20454;-76
2022/07/28 16:34:09;;;;;;;6.32;3.70;;;36.50;42.50;;;;;;4954395;28;20488;-77
2022/07/28 16:36:36;;;;;;;6.57;3.05;;;36.70;42.90;;;;;;4954355;28;20074;-77
2022/07/28 16:39:03;;;;;;;6.22;3.58;;;37.40;42.30;;;;;;4957526;28;20040;-77
2022/07/28 16:41:29;;;;;;;3.72;2.92;;;37.50;41.70;;;;;;4959240;28;20082;-76
2022/07/28 16:43:54;;;;;;;5.32;3.20;;;36.70;42.40;;;;;;4959865;28;20103;-78
2022/07/28 16:46:20;;;;;;;6.55;3.03;;;36.20;44.20;;;;;;4958347;28;20031;-76
2022/07/28 16:48:46;;;;;;;5.07;3.03;;;35.10;44.20;;;;;;4959354;28;20187;-76
2022/07/28 16:51:12;;;;;;;5.55;2.95;;;34.40;45.50;;;;;;4959170;28;20557;-76